createdAt,value
2022-09-22T00:02:18.738Z,2.13
2022-09-22T00:05:03.754Z,2.50
2022-09-22T00:07:49.448Z,2.40
2022-09-22T00:10:33.161Z,2.40
2022-09-22T00:13:16.916Z,2.43
2022-09-22T00:16:01.595Z,2.13
2022-09-22T00:18:45.763Z,2.07
2022-09-22T00:21:31.200Z,2.03
2022-09-22T00:24:17.909Z,2.40
2022-09-22T00:27:01.841Z,2.10
2022-09-22T00:29:45.711Z,2.20
2022-09-22T00:32:29.460Z,2.27
2022-09-22T00:35:13.431Z,2.03
2022-09-22T00:37:57.215Z,2.10
2022-09-22T00:40:42.504Z,2.37
2022-09-22T00:43:28.250Z,1.80
2022-09-22T00:46:17.504Z,1.93
2022-09-22T00:49:05.805Z,2.07
2022-09-22T00:51:50.058Z,2.37
2022-09-22T00:54:34.923Z,2.00
2022-09-22T00:57:23.812Z,2.20
2022-09-22T01:00:10.847Z,2.23
2022-09-22T01:02:59.249Z,2.13
2022-09-22T01:05:45.047Z,2.17
2022-09-22T01:08:31.502Z,2.17
2022-09-22T01:11:16.504Z,1.90
2022-09-22T01:14:08.547Z,2.57
2022-09-22T01:17:03.192Z,2.17
2022-09-22T01:20:34.980Z,2.30
2022-09-22T01:23:42.734Z,2.70
2022-09-22T01:27:07.510Z,2.63
2022-09-22T01:30:20.728Z,2.50
2022-09-22T01:33:17.948Z,2.50
2022-09-22T01:36:13.410Z,2.77
2022-09-22T01:39:06.885Z,2.60
2022-09-22T01:41:58.499Z,2.83
2022-09-22T01:44:49.290Z,2.73
2022-09-22T01:47:40.766Z,2.80
2022-09-22T01:50:29.085Z,2.40
2022-09-22T01:53:15.508Z,2.77
2022-09-22T01:56:05.867Z,2.73
2022-09-22T01:58:54.021Z,2.70
2022-09-22T02:01:42.499Z,2.47
2022-09-22T02:04:34.473Z,2.60
2022-09-22T02:07:25.517Z,2.63
2022-09-22T02:10:13.629Z,2.53
2022-09-22T02:12:57.388Z,2.50
2022-09-22T02:15:58.734Z,3.40
2022-09-22T02:18:46.658Z,2.80
2022-09-22T02:21:32.242Z,2.47
2022-09-22T02:24:33.194Z,3.27
2022-09-22T02:27:25.640Z,2.40
2022-09-22T02:30:12.744Z,2.90
2022-09-22T02:32:58.865Z,2.50
2022-09-22T02:35:48.705Z,2.73
2022-09-22T02:38:39.944Z,2.47
2022-09-22T02:41:30.988Z,2.57
2022-09-22T02:44:21.343Z,2.40
2022-09-22T02:47:11.107Z,2.30
2022-09-22T02:49:56.966Z,2.57
2022-09-22T02:52:42.049Z,2.60
2022-09-22T02:55:27.494Z,3.00
2022-09-22T02:58:11.560Z,2.60
2022-09-22T03:00:55.539Z,3.00
2022-09-22T03:03:39.584Z,3.20
2022-09-22T03:06:23.600Z,2.60
2022-09-22T03:09:07.681Z,2.67
2022-09-22T03:11:53.484Z,2.63
2022-09-22T03:14:37.524Z,2.40
2022-09-22T03:17:21.544Z,2.80
2022-09-22T03:20:06.920Z,2.60
2022-09-22T03:22:51.072Z,2.60
2022-09-22T03:25:35.432Z,2.83
2022-09-22T03:28:21.473Z,2.90
2022-09-22T03:31:05.499Z,3.00
2022-09-22T03:33:52.754Z,3.10
2022-09-22T03:36:37.048Z,2.60
2022-09-22T03:39:21.460Z,3.10
2022-09-22T03:42:05.788Z,2.87
2022-09-22T03:44:51.177Z,2.93
2022-09-22T03:47:35.086Z,2.90
2022-09-22T03:50:19.229Z,3.00
2022-09-22T03:53:03.216Z,3.37
2022-09-22T03:55:47.320Z,4.10
2022-09-22T03:58:31.242Z,6.10
2022-09-22T04:01:17.134Z,3.60
2022-09-22T04:04:01.285Z,2.93
2022-09-22T04:06:45.418Z,3.10
2022-09-22T04:09:29.354Z,3.03
2022-09-22T04:12:13.285Z,2.90
2022-09-22T04:14:57.264Z,2.97
2022-09-22T04:17:42.684Z,3.00
2022-09-22T04:20:27.375Z,3.03
2022-09-22T04:23:11.542Z,2.70
2022-09-22T04:25:55.556Z,2.90
2022-09-22T04:28:39.495Z,3.60
2022-09-22T04:31:24.191Z,3.43
2022-09-22T04:34:09.583Z,3.20
2022-09-22T04:36:53.654Z,3.17
2022-09-22T04:39:37.978Z,3.50
2022-09-22T04:42:21.946Z,3.40
2022-09-22T04:45:07.132Z,3.10
2022-09-22T04:47:53.148Z,3.57
2022-09-22T04:50:38.634Z,3.70
2022-09-22T04:53:22.959Z,3.23
2022-09-22T04:56:07.450Z,3.10
2022-09-22T04:58:51.429Z,2.83
2022-09-22T05:01:35.714Z,2.90
2022-09-22T05:04:19.606Z,3.20
2022-09-22T05:07:04.896Z,3.70
2022-09-22T05:09:48.733Z,3.60
2022-09-22T05:12:32.652Z,3.73
2022-09-22T05:15:16.574Z,2.97
2022-09-22T05:18:00.449Z,3.00
2022-09-22T05:20:44.777Z,3.00
2022-09-22T05:23:30.377Z,2.83
2022-09-22T05:26:14.227Z,3.07
2022-09-22T05:28:58.557Z,3.30
2022-09-22T05:31:42.384Z,2.80
2022-09-22T05:34:26.202Z,2.67
2022-09-22T05:37:10.034Z,2.83
2022-09-22T05:39:55.178Z,2.93
2022-09-22T05:42:42.246Z,3.03
2022-09-22T05:45:26.079Z,3.60
2022-09-22T05:48:09.959Z,3.00
2022-09-22T05:50:53.733Z,3.40
2022-09-22T05:53:37.494Z,3.23
2022-09-22T05:56:22.603Z,3.20
2022-09-22T05:59:06.335Z,3.70
2022-09-22T06:01:50.202Z,3.43
2022-09-22T06:04:34.051Z,3.50
2022-09-22T06:07:20.301Z,3.47
2022-09-22T06:10:04.031Z,3.70
2022-09-22T06:12:49.457Z,3.33
2022-09-22T06:15:34.006Z,3.53
2022-09-22T06:18:24.173Z,3.30
2022-09-22T06:21:08.468Z,4.03
2022-09-22T06:23:52.458Z,3.60
2022-09-22T06:26:36.206Z,3.87
2022-09-22T06:29:21.360Z,3.90
2022-09-22T06:32:05.267Z,3.13
2022-09-22T06:34:49.107Z,3.40
2022-09-22T06:37:33.302Z,3.43
2022-09-22T06:40:17.690Z,3.47
2022-09-22T06:43:07.673Z,3.40
2022-09-22T06:45:53.564Z,4.30
2022-09-22T06:48:37.902Z,3.50
2022-09-22T06:51:21.669Z,3.50
2022-09-22T06:54:07.000Z,3.50
2022-09-22T06:56:50.804Z,3.63
2022-09-22T06:59:37.944Z,3.67
2022-09-22T07:02:23.365Z,3.30
2022-09-22T07:05:08.242Z,3.77
2022-09-22T07:07:51.886Z,3.63
2022-09-22T07:10:38.030Z,3.87
2022-09-22T07:13:22.403Z,3.70
2022-09-22T07:16:09.126Z,4.97
2022-09-22T07:18:56.366Z,4.97
2022-09-22T07:21:40.544Z,4.37
2022-09-22T07:24:24.418Z,3.93
2022-09-22T07:27:08.173Z,4.47
2022-09-22T07:29:52.322Z,4.40
2022-09-22T07:32:36.105Z,3.83
2022-09-22T07:35:21.306Z,5.20
2022-09-22T07:38:05.219Z,4.10
2022-09-22T07:40:55.588Z,4.33
2022-09-22T07:43:39.945Z,4.13
2022-09-22T07:46:23.983Z,3.10
2022-09-22T07:49:08.324Z,4.30
2022-09-22T07:51:55.196Z,3.90
2022-09-22T07:54:39.928Z,3.63
2022-09-22T07:57:24.079Z,3.30
2022-09-22T08:00:09.426Z,3.17
2022-09-22T08:02:57.955Z,3.20
2022-09-22T08:05:41.929Z,2.90
2022-09-22T08:08:27.426Z,3.40
2022-09-22T08:11:15.170Z,2.50
2022-09-22T08:14:00.983Z,2.20
2022-09-22T08:16:46.144Z,2.23
2022-09-22T08:19:34.039Z,2.40
2022-09-22T08:22:18.891Z,2.00
2022-09-22T08:25:04.976Z,1.90
2022-09-22T08:27:49.004Z,2.10
2022-09-22T08:30:32.951Z,2.23
2022-09-22T08:33:17.272Z,1.90
2022-09-22T08:36:03.939Z,1.80
2022-09-22T08:38:49.755Z,1.83
2022-09-22T08:41:47.066Z,1.70
2022-09-22T08:44:37.549Z,1.80
2022-09-22T08:47:42.341Z,1.70
2022-09-22T08:50:51.394Z,1.70
2022-09-22T08:53:41.570Z,1.90
2022-09-22T08:56:29.336Z,1.63
2022-09-22T08:59:20.981Z,3.40
2022-09-22T09:02:38.210Z,1.70
2022-09-22T09:05:54.650Z,1.77
2022-09-22T09:09:20.110Z,1.37
2022-09-22T09:12:19.445Z,1.60
2022-09-22T09:15:29.057Z,1.17
2022-09-22T09:18:16.812Z,1.53
2022-09-22T09:21:04.875Z,1.23
2022-09-22T09:27:07.815Z,1.73
2022-09-22T09:30:01.408Z,1.90
2022-09-22T09:32:51.994Z,1.87
2022-09-22T09:35:44.369Z,1.97
2022-09-22T09:38:31.106Z,2.83
2022-09-22T09:41:19.175Z,4.80
2022-09-22T09:44:05.747Z,3.17
2022-09-22T09:46:58.296Z,2.67
2022-09-22T09:49:44.086Z,3.50
2022-09-22T09:52:29.466Z,2.53
2022-09-22T09:55:27.415Z,2.50
2022-09-22T09:58:35.333Z,2.50
2022-09-22T10:01:18.544Z,2.17
2022-09-22T10:04:02.896Z,1.60
2022-09-22T10:06:48.844Z,1.80
2022-09-22T10:09:32.942Z,1.70
2022-09-22T10:12:29.764Z,1.90
2022-09-22T10:15:25.904Z,1.87
2022-09-22T10:18:33.894Z,2.10
2022-09-22T10:21:19.655Z,1.90
2022-09-22T10:24:25.621Z,2.10
2022-09-22T10:27:24.278Z,2.27
2022-09-22T10:30:22.737Z,2.13
2022-09-22T10:33:15.703Z,2.05
2022-09-22T10:36:10.981Z,1.90
2022-09-22T10:38:59.654Z,1.35
2022-09-22T10:41:48.334Z,2.07
2022-09-22T10:44:39.330Z,2.10
2022-09-22T10:47:32.467Z,2.00
2022-09-22T10:50:41.301Z,2.25
2022-09-22T10:53:40.011Z,2.08
2022-09-22T10:56:34.263Z,1.60
2022-09-22T10:59:37.566Z,1.70
2022-09-22T11:03:15.084Z,2.03
2022-09-22T11:06:27.652Z,3.50
2022-09-22T11:09:34.037Z,1.95
2022-09-22T11:12:30.991Z,1.90
2022-09-22T11:15:40.046Z,2.33
2022-09-22T11:18:43.387Z,1.80
2022-09-22T11:21:39.752Z,1.90
2022-09-22T11:24:38.292Z,1.70
2022-09-22T11:27:36.491Z,2.13
2022-09-22T11:30:23.062Z,2.00
2022-09-22T11:33:31.954Z,1.80
2022-09-22T11:36:26.509Z,1.50
2022-09-22T11:39:22.039Z,2.05
2022-09-22T11:42:19.630Z,1.73
2022-09-22T11:45:09.723Z,1.70
2022-09-22T11:48:06.489Z,1.90
2022-09-22T11:51:04.885Z,1.80
2022-09-22T11:54:04.513Z,1.75
2022-09-22T11:56:51.509Z,2.05
2022-09-22T11:59:41.822Z,1.67
2022-09-22T12:02:30.660Z,1.30
2022-09-22T12:05:19.999Z,1.40
2022-09-22T12:08:08.456Z,1.40
2022-09-22T12:10:52.875Z,1.37
2022-09-22T12:13:42.117Z,1.30
2022-09-22T12:16:31.883Z,1.17
2022-09-22T12:19:25.319Z,1.40
2022-09-22T12:22:17.932Z,1.17
2022-09-22T12:25:03.463Z,1.23
2022-09-22T12:27:47.398Z,1.27
2022-09-22T12:30:31.235Z,1.13
2022-09-22T12:33:17.226Z,1.37
2022-09-22T12:36:02.315Z,1.47
2022-09-22T12:38:46.915Z,2.03
2022-09-22T12:41:32.275Z,1.20
2022-09-22T12:44:23.142Z,1.70
2022-09-22T12:47:09.259Z,1.58
2022-09-22T12:49:57.494Z,2.38
2022-09-22T12:53:04.335Z,1.10
2022-09-22T12:55:48.715Z,1.10
2022-09-22T12:58:44.372Z,1.07
2022-09-22T13:01:37.266Z,1.13
2022-09-22T13:04:21.120Z,1.17
2022-09-22T13:07:06.127Z,1.00
2022-09-22T13:09:49.824Z,0.90
2022-09-22T13:12:33.586Z,2.60
2022-09-22T13:15:21.111Z,1.00
2022-09-22T13:18:05.089Z,1.20
2022-09-22T13:20:49.678Z,1.55
2022-09-22T13:23:33.435Z,2.40
2022-09-22T13:26:19.923Z,1.13
2022-09-22T13:29:12.134Z,1.40
2022-09-22T13:31:58.008Z,1.20
2022-09-22T13:34:41.678Z,1.27
2022-09-22T13:37:26.142Z,0.90
2022-09-22T13:40:12.397Z,1.23
2022-09-22T13:43:00.281Z,1.40
2022-09-22T13:45:46.984Z,1.00
2022-09-22T13:48:35.640Z,1.10
2022-09-22T13:51:19.760Z,1.20
2022-09-22T13:54:04.990Z,1.08
2022-09-22T13:56:49.307Z,1.15
2022-09-22T13:59:39.844Z,0.82
2022-09-22T14:02:30.778Z,1.23
2022-09-22T14:05:23.050Z,1.20
2022-09-22T14:08:12.745Z,1.87
2022-09-22T14:10:58.972Z,1.15
2022-09-22T14:13:45.203Z,1.40
2022-09-22T14:16:34.239Z,1.40
2022-09-22T14:19:21.199Z,1.57
2022-09-22T14:22:15.507Z,1.50
2022-09-22T14:25:01.606Z,1.43
2022-09-22T14:27:52.081Z,1.40
2022-09-22T14:30:42.023Z,1.63
2022-09-22T14:33:29.082Z,1.20
2022-09-22T14:36:18.716Z,1.33
2022-09-22T14:39:10.033Z,1.30
2022-09-22T14:41:59.250Z,1.27
2022-09-22T14:44:45.861Z,1.10
2022-09-22T14:47:39.216Z,1.10
2022-09-22T14:50:39.500Z,1.50
2022-09-22T14:53:27.613Z,1.47
2022-09-22T14:56:20.296Z,1.30
2022-09-22T14:59:28.198Z,1.30
2022-09-22T15:02:33.553Z,1.30
2022-09-22T15:05:29.572Z,1.30
2022-09-22T15:08:18.848Z,1.40
2022-09-22T15:11:03.498Z,1.40
2022-09-22T15:13:52.846Z,1.90
2022-09-22T15:16:39.169Z,1.60
2022-09-22T15:19:23.060Z,1.50
2022-09-22T15:22:07.366Z,1.27
2022-09-22T15:24:51.317Z,1.70
2022-09-22T15:27:35.219Z,1.90
2022-09-22T15:30:21.988Z,1.73
2022-09-22T15:33:06.107Z,2.60
2022-09-22T15:35:53.880Z,2.20
2022-09-22T15:38:39.225Z,1.90
2022-09-22T15:41:22.999Z,1.70
2022-09-22T15:44:07.210Z,1.60
2022-09-22T15:46:54.930Z,1.40
2022-09-22T15:49:38.595Z,1.60
2022-09-22T15:52:22.382Z,1.70
2022-09-22T15:55:06.494Z,2.20
2022-09-22T15:57:54.882Z,4.23
2022-09-22T16:00:39.019Z,2.90
2022-09-22T16:03:24.786Z,1.77
2022-09-22T16:06:11.772Z,2.67
2022-09-22T16:08:56.477Z,1.93
2022-09-22T16:11:40.138Z,1.63
2022-09-22T16:14:24.100Z,1.50
2022-09-22T16:17:08.395Z,1.93
2022-09-22T16:19:53.793Z,1.83
2022-09-22T16:22:37.769Z,1.87
2022-09-22T16:25:21.937Z,2.03
2022-09-22T16:28:07.700Z,3.87
2022-09-22T16:30:51.743Z,2.30
2022-09-22T16:33:35.709Z,4.10
2022-09-22T16:36:21.612Z,6.50
2022-09-22T16:39:05.606Z,3.93
2022-09-22T16:41:49.500Z,3.33
2022-09-22T16:44:33.199Z,3.23
2022-09-22T16:47:18.491Z,3.30
2022-09-22T16:50:02.391Z,2.90
2022-09-22T16:52:48.345Z,2.60
2022-09-22T16:55:35.579Z,2.20
2022-09-22T16:58:20.948Z,5.60
2022-09-22T17:01:05.132Z,7.83
2022-09-22T17:03:50.722Z,4.37
2022-09-22T17:06:36.186Z,2.90
2022-09-22T17:09:21.782Z,3.20
2022-09-22T17:12:10.727Z,3.03
2022-09-22T17:14:54.407Z,4.03
2022-09-22T17:17:39.663Z,2.93
2022-09-22T17:20:24.088Z,3.73
2022-09-22T17:23:08.032Z,2.53
2022-09-22T17:25:53.160Z,2.67
2022-09-22T17:28:37.041Z,1.90
2022-09-22T17:31:21.334Z,2.53
2022-09-22T17:34:05.226Z,2.70
2022-09-22T17:36:49.050Z,2.17
2022-09-22T17:39:32.890Z,2.40
2022-09-22T17:42:18.438Z,2.30
2022-09-22T17:45:02.966Z,2.43
2022-09-22T17:48:04.675Z,2.03
2022-09-22T17:51:08.139Z,2.83
2022-09-22T17:54:08.405Z,2.43
2022-09-22T17:56:52.224Z,2.20
2022-09-22T17:59:38.331Z,2.30
2022-09-22T18:02:22.223Z,2.30
2022-09-22T18:05:07.016Z,2.30
2022-09-22T18:07:53.789Z,2.30
2022-09-22T18:10:37.689Z,2.50
2022-09-22T18:13:21.430Z,2.67
2022-09-22T18:16:21.187Z,1.97
2022-09-22T18:19:05.795Z,2.30
2022-09-22T18:21:49.738Z,1.93
2022-09-22T18:24:33.466Z,1.90
2022-09-22T18:27:19.712Z,2.00
2022-09-22T18:30:05.207Z,1.90
2022-09-22T18:32:50.463Z,2.40
2022-09-22T18:35:34.583Z,2.43
2022-09-22T18:38:18.410Z,2.37
2022-09-22T18:41:02.383Z,1.97
2022-09-22T18:43:46.243Z,1.90
2022-09-22T18:46:30.997Z,2.30
2022-09-22T18:49:17.258Z,2.07
2022-09-22T18:52:02.840Z,2.00
2022-09-22T18:54:46.952Z,1.90
2022-09-22T18:57:30.898Z,2.27
2022-09-22T19:00:16.241Z,2.17
2022-09-22T19:03:00.640Z,2.20
2022-09-22T19:05:46.163Z,2.70
2022-09-22T19:08:30.050Z,1.93
2022-09-22T19:11:17.552Z,2.00
2022-09-22T19:14:02.223Z,2.40
2022-09-22T19:16:46.781Z,2.47
2022-09-22T19:19:30.750Z,2.70
2022-09-22T19:22:15.996Z,2.90
2022-09-22T19:25:04.304Z,2.87
2022-09-22T19:27:48.835Z,3.47
2022-09-22T19:30:32.704Z,2.50
2022-09-22T19:33:16.723Z,2.33
2022-09-22T19:36:00.759Z,2.67
2022-09-22T19:38:45.907Z,3.37
2022-09-22T19:41:29.669Z,3.10
2022-09-22T19:44:13.929Z,2.90
2022-09-22T19:46:57.842Z,2.63
2022-09-22T19:49:42.296Z,3.10
2022-09-22T19:52:26.198Z,4.10
2022-09-22T19:55:12.583Z,2.77
2022-09-22T19:57:56.368Z,2.77
2022-09-22T20:00:40.970Z,2.90
2022-09-22T20:03:24.690Z,2.70
2022-09-22T20:06:08.557Z,2.80
2022-09-22T20:08:55.835Z,2.77
2022-09-22T20:11:43.955Z,2.77
2022-09-22T20:14:29.896Z,3.33
2022-09-22T20:17:13.944Z,2.53
2022-09-22T20:19:57.731Z,2.50
2022-09-22T20:22:42.080Z,2.93
2022-09-22T20:25:28.672Z,2.90
2022-09-22T20:28:14.155Z,3.13
2022-09-22T20:30:57.970Z,2.40
2022-09-22T20:33:41.936Z,1.97
2022-09-22T20:36:25.670Z,2.60
2022-09-22T20:39:09.748Z,2.60
2022-09-22T20:41:53.472Z,2.30
2022-09-22T20:44:39.031Z,2.50
2022-09-22T20:47:25.918Z,2.90
2022-09-22T20:50:11.981Z,2.87
2022-09-22T20:52:56.233Z,2.80
2022-09-22T20:55:39.916Z,3.13
2022-09-22T20:58:23.834Z,3.00
2022-09-22T21:01:10.565Z,2.90
2022-09-22T21:03:54.388Z,2.70
2022-09-22T21:06:38.158Z,3.37
2022-09-22T21:09:38.977Z,3.70
2022-09-22T21:12:25.281Z,3.37
2022-09-22T21:15:12.841Z,3.70
2022-09-22T21:17:58.596Z,3.60
2022-09-22T21:20:42.597Z,3.20
2022-09-22T21:23:26.587Z,3.53
2022-09-22T21:26:12.577Z,3.00
2022-09-22T21:28:57.019Z,3.13
2022-09-22T21:31:41.219Z,3.43
2022-09-22T21:34:26.792Z,3.03
2022-09-22T21:37:11.083Z,2.23
2022-09-22T21:39:54.898Z,2.33
2022-09-22T21:42:38.788Z,2.10
2022-09-22T21:45:22.576Z,2.30
2022-09-22T21:48:06.323Z,2.20
2022-09-22T21:50:57.705Z,2.10
2022-09-22T21:53:44.126Z,2.17
2022-09-22T21:56:30.125Z,2.50
2022-09-22T21:59:14.749Z,2.37
2022-09-22T22:01:58.707Z,2.63
2022-09-22T22:04:43.954Z,2.03
2022-09-22T22:07:29.089Z,2.63
2022-09-22T22:10:12.802Z,2.47
2022-09-22T22:12:56.691Z,2.50
2022-09-22T22:15:41.038Z,2.40
2022-09-22T22:18:24.775Z,2.33
2022-09-22T22:21:10.802Z,2.40
2022-09-22T22:24:14.126Z,2.60
2022-09-22T22:27:01.500Z,2.33
2022-09-22T22:29:46.721Z,3.13
2022-09-22T22:32:30.414Z,2.40
2022-09-22T22:35:14.294Z,2.20
2022-09-22T22:37:57.996Z,2.43
2022-09-22T22:40:43.274Z,2.47
2022-09-22T22:43:27.247Z,2.40
2022-09-22T22:46:16.677Z,2.70
2022-09-22T22:49:00.925Z,2.40
2022-09-22T22:51:44.826Z,2.60
2022-09-22T22:54:28.674Z,2.63
2022-09-22T22:57:13.800Z,2.20
2022-09-22T22:59:58.218Z,2.80
2022-09-22T23:02:41.926Z,2.70
2022-09-22T23:05:25.681Z,2.60
2022-09-22T23:08:09.870Z,2.20
2022-09-22T23:11:02.508Z,2.30
2022-09-22T23:13:51.022Z,2.27
2022-09-22T23:16:37.799Z,2.50
2022-09-22T23:19:21.564Z,2.33
2022-09-22T23:22:05.769Z,2.40
2022-09-22T23:24:49.593Z,2.33
2022-09-22T23:27:33.350Z,2.70
2022-09-22T23:30:18.810Z,2.93
2022-09-22T23:33:02.730Z,2.53
2022-09-22T23:35:54.617Z,3.10
2022-09-22T23:38:38.460Z,2.60
2022-09-22T23:41:22.617Z,3.00
2022-09-22T23:44:07.247Z,2.90
2022-09-22T23:46:52.431Z,2.70
2022-09-22T23:49:36.067Z,2.57
2022-09-22T23:52:19.968Z,2.57
2022-09-22T23:55:03.778Z,2.80
2022-09-22T23:57:47.911Z,2.60
